createdAt,value
2022-12-05T00:00:00.000Z,24.32
2022-12-05T00:15:00.000Z,24.56
2022-12-05T00:30:00.000Z,24.59
2022-12-05T00:45:00.000Z,26.34
2022-12-05T01:00:00.000Z,26.8
2022-12-05T01:15:00.000Z,26.85
2022-12-05T01:30:00.000Z,26.71
2022-12-05T01:45:00.000Z,27.76
2022-12-05T02:00:00.000Z,28.12
2022-12-05T02:15:00.000Z,26.84
2022-12-05T02:30:00.000Z,28.78
2022-12-05T02:45:00.000Z,29.12
2022-12-05T03:00:00.000Z,30.71
2022-12-05T03:15:00.000Z,29.39
2022-12-05T03:30:00.000Z,29.1
2022-12-05T03:45:00.000Z,28.42
2022-12-05T04:00:00.000Z,27.91
2022-12-05T04:15:00.000Z,26.38
2022-12-05T04:30:00.000Z,26.58
2022-12-05T04:45:00.000Z,28.05
2022-12-05T05:00:00.000Z,26.26
2022-12-05T05:15:00.000Z,21.62
2022-12-05T05:30:00.000Z,21.72
2022-12-05T05:45:00.000Z,21.96
2022-12-05T06:00:00.000Z,26.07
2022-12-05T06:15:00.000Z,23.05
2022-12-05T06:30:00.000Z,23.73
2022-12-05T06:45:00.000Z,23.7
2022-12-05T07:00:00.000Z,23.75
2022-12-05T07:15:00.000Z,24.86
2022-12-05T07:30:00.000Z,24.93
2022-12-05T07:45:00.000Z,25
2022-12-05T08:00:00.000Z,26.86
2022-12-05T08:15:00.000Z,25.95
2022-12-05T08:30:00.000Z,24.59
2022-12-05T08:45:00.000Z,25.05
2022-12-05T09:00:00.000Z,26.24
2022-12-05T09:15:00.000Z,26.76
2022-12-05T09:30:00.000Z,25.81
2022-12-05T09:45:00.000Z,26.95
2022-12-05T10:00:00.000Z,25.93
2022-12-05T10:15:00.000Z,26.89
2022-12-05T10:30:00.000Z,28.61
2022-12-05T10:45:00.000Z,27.12
2022-12-05T11:00:00.000Z,27.62
2022-12-05T11:15:00.000Z,28.96
2022-12-05T11:30:00.000Z,28.91
2022-12-05T11:45:00.000Z,31.19
2022-12-05T12:00:00.000Z,31.49
2022-12-05T12:15:00.000Z,29
2022-12-05T12:30:00.000Z,28.26
2022-12-05T12:45:00.000Z,32.75
2022-12-05T13:00:00.000Z,38.92
2022-12-05T13:15:00.000Z,25.95
2022-12-05T13:30:00.000Z,26.11
2022-12-05T13:45:00.000Z,39.95
2022-12-05T14:00:00.000Z,24.26
2022-12-05T14:15:00.000Z,22.11
2022-12-05T14:30:00.000Z,21.87
2022-12-05T14:45:00.000Z,21.96
2022-12-05T15:00:00.000Z,21.05
2022-12-05T15:15:00.000Z,21.05
2022-12-05T15:30:00.000Z,21.72
2022-12-05T15:45:00.000Z,23.8
2022-12-05T16:00:00.000Z,26.85
2022-12-05T16:15:00.000Z,24.72
2022-12-05T16:30:00.000Z,27.64
2022-12-05T16:45:00.000Z,32.29
2022-12-05T17:00:00.000Z,26.33
2022-12-05T17:15:00.000Z,25.34
2022-12-05T17:30:00.000Z,28.02
2022-12-05T17:45:00.000Z,29.55
2022-12-05T18:00:00.000Z,27.38
2022-12-05T18:15:00.000Z,12.13
2022-12-05T18:30:00.000Z,6.48
2022-12-05T18:45:00.000Z,3.52
2022-12-05T19:00:00.000Z,4.68
2022-12-05T19:15:00.000Z,3.49
2022-12-05T19:30:00.000Z,3.47
2022-12-05T19:45:00.000Z,2.19
2022-12-05T20:00:00.000Z,2.68
2022-12-05T20:15:00.000Z,2.69
2022-12-05T20:45:00.000Z,3
2022-12-05T20:45:00.000Z,2.41
2022-12-05T21:00:00.000Z,2.11
2022-12-05T21:15:00.000Z,2.66
2022-12-05T21:30:00.000Z,6.78
2022-12-05T21:45:00.000Z,6.54
2022-12-05T22:00:00.000Z,13.85
2022-12-05T22:15:00.000Z,6.91
2022-12-05T22:30:00.000Z,6.48
2022-12-05T22:45:00.000Z,5.31
2022-12-05T23:00:00.000Z,4.27
2022-12-05T23:15:00.000Z,6.05
2022-12-05T23:30:00.000Z,6.93
2022-12-05T23:45:00.000Z,6.93
